KMGE/MGE METAR and TAF weather

Enter ICAO airport designator
Station Type Date Time Source
KMGE METAR 2022/11/27 09:25 UTC NOAA

KMGE 270925Z AUTO 11010KT 6SM -RA BKN001 OVC005 13/13 A2974 RMK AO2 SLP069 $


Station Type Date Time Source
KMGE Decoded METAR 2022/11/27 09:25 UTC NOAA

Marietta / Dobbins Air Force Base, GA, United States (KMGE) 33-55N 084-31W 326M
Nov 27, 2022 - 04:25 AM EST / 2022.11.27 0925 UTC
Wind: from the ESE (110 degrees) at 12 MPH (10 KT):0
Visibility: 6 mile(s):0
Sky conditions: overcast
Weather: light rain
Temperature: 55 F (13 C)
Dew Point: 55 F (13 C)
Relative Humidity: 100%
Pressure (altimeter): 29.74 in. Hg (1007 hPa)
ob: KMGE 270925Z AUTO 11010KT 6SM -RA BKN001 OVC005 13/13 A2974 RMK AO2 SLP069
cycle: 9

Station Type Date Time Source
KMGE TAF 2022/11/26 14:28 UTC NOAA

TAF KMGE 261405Z 2614/2720 10010KT 9999 FEW150 BKN250 QNH3010INS
BECMG 2616/2617 12010G15KT 9999 BKN070 BKN250 QNH3004INS
BECMG 2621/2622 12010G15KT 9999 VCSH BKN020 OVC060 QNH2995INS
BECMG 2702/2703 12010G15KT 4800 -SHRA BR BKN005 OVC012 QNH2985INS
BECMG 2705/2706 12015G25KT 2400 SHRA BR VCTS OVC004CB QNH2975INS
BECMG 2710/2711 18015G25KT 6000 -SHRA BR OVC010 QNH2975INS
BECMG 2713/2714 25015G25KT 9999 VCSH BKN020 OVC050 QNH2975INS
BECMG 2719/2720 27010G20KT 9999 NSW BKN050 QNH2978INS TX17/2621Z TN15/2713Z LAST NO
AMDS AFT 2621 NEXT 2712

Example: see airport list